sensor_id;sensor_type;location;lat;lon;timestamp;P1;durP1;ratioP1;P2;durP2;ratioP2
41466;SDS011;27205;53.690;19.948;2023-06-14T00:04:02;4.10;;;3.60;;
41466;SDS011;27205;53.690;19.948;2023-06-14T00:09:07;5.10;;;3.90;;
41466;SDS011;27205;53.690;19.948;2023-06-14T00:14:12;6.30;;;3.70;;
41466;SDS011;27205;53.690;19.948;2023-06-14T00:19:15;5.50;;;3.90;;
41466;SDS011;27205;53.690;19.948;2023-06-14T00:24:19;5.30;;;4.40;;
41466;SDS011;27205;53.690;19.948;2023-06-14T00:29:23;8.00;;;4.00;;
41466;SDS011;27205;53.690;19.948;2023-06-14T00:34:27;4.60;;;3.90;;
41466;SDS011;27205;53.690;19.948;2023-06-14T00:39:30;5.80;;;3.70;;
41466;SDS011;27205;53.690;19.948;2023-06-14T00:44:34;5.40;;;3.80;;
41466;SDS011;27205;53.690;19.948;2023-06-14T00:49:37;5.00;;;3.80;;
41466;SDS011;27205;53.690;19.948;2023-06-14T00:54:41;4.80;;;4.30;;
41466;SDS011;27205;53.690;19.948;2023-06-14T00:59:46;5.30;;;4.30;;
41466;SDS011;27205;53.690;19.948;2023-06-14T01:04:52;5.60;;;4.10;;
41466;SDS011;27205;53.690;19.948;2023-06-14T01:15:21;6.20;;;5.40;;
41466;SDS011;27205;53.690;19.948;2023-06-14T01:20:27;6.50;;;5.30;;
41466;SDS011;27205;53.690;19.948;2023-06-14T01:25:32;9.40;;;7.50;;
41466;SDS011;27205;53.690;19.948;2023-06-14T01:30:36;8.70;;;7.50;;
41466;SDS011;27205;53.690;19.948;2023-06-14T01:35:42;10.30;;;9.00;;
41466;SDS011;27205;53.690;19.948;2023-06-14T01:40:46;20.80;;;18.70;;
41466;SDS011;27205;53.690;19.948;2023-06-14T01:45:51;20.60;;;18.60;;
41466;SDS011;27205;53.690;19.948;2023-06-14T01:50:57;14.80;;;13.40;;
41466;SDS011;27205;53.690;19.948;2023-06-14T01:56:00;11.70;;;10.50;;
41466;SDS011;27205;53.690;19.948;2023-06-14T02:01:04;14.20;;;12.80;;
41466;SDS011;27205;53.690;19.948;2023-06-14T02:06:08;19.90;;;17.90;;
41466;SDS011;27205;53.690;19.948;2023-06-14T02:11:13;18.30;;;16.40;;
41466;SDS011;27205;53.690;19.948;2023-06-14T02:16:17;11.70;;;10.50;;
41466;SDS011;27205;53.690;19.948;2023-06-14T02:21:20;10.20;;;8.20;;
41466;SDS011;27205;53.690;19.948;2023-06-14T02:26:24;9.10;;;7.10;;
41466;SDS011;27205;53.690;19.948;2023-06-14T02:31:32;16.00;;;13.70;;
41466;SDS011;27205;53.690;19.948;2023-06-14T02:36:36;14.70;;;13.10;;
41466;SDS011;27205;53.690;19.948;2023-06-14T02:41:44;13.80;;;12.40;;
41466;SDS011;27205;53.690;19.948;2023-06-14T02:46:48;11.50;;;10.40;;
41466;SDS011;27205;53.690;19.948;2023-06-14T02:51:51;8.70;;;7.70;;
41466;SDS011;27205;53.690;19.948;2023-06-14T02:56:55;8.00;;;7.20;;
41466;SDS011;27205;53.690;19.948;2023-06-14T03:01:59;10.70;;;6.90;;
41466;SDS011;27205;53.690;19.948;2023-06-14T03:07:03;6.60;;;5.90;;
41466;SDS011;27205;53.690;19.948;2023-06-14T03:12:11;6.50;;;5.30;;
41466;SDS011;27205;53.690;19.948;2023-06-14T03:17:16;6.20;;;5.10;;
41466;SDS011;27205;53.690;19.948;2023-06-14T03:22:20;9.30;;;8.20;;
41466;SDS011;27205;53.690;19.948;2023-06-14T03:27:25;32.40;;;13.60;;
41466;SDS011;27205;53.690;19.948;2023-06-14T03:32:28;6.10;;;5.20;;
41466;SDS011;27205;53.690;19.948;2023-06-14T03:37:36;4.50;;;4.10;;
41466;SDS011;27205;53.690;19.948;2023-06-14T03:42:40;6.60;;;5.00;;
41466;SDS011;27205;53.690;19.948;2023-06-14T03:47:43;5.60;;;3.90;;
41466;SDS011;27205;53.690;19.948;2023-06-14T03:52:48;4.90;;;4.40;;
41466;SDS011;27205;53.690;19.948;2023-06-14T03:57:51;4.70;;;4.20;;
41466;SDS011;27205;53.690;19.948;2023-06-14T04:02:55;4.70;;;4.30;;
41466;SDS011;27205;53.690;19.948;2023-06-14T04:07:59;6.00;;;4.40;;
41466;SDS011;27205;53.690;19.948;2023-06-14T04:13:04;4.30;;;4.00;;
41466;SDS011;27205;53.690;19.948;2023-06-14T04:23:12;13.10;;;11.90;;
41466;SDS011;27205;53.690;19.948;2023-06-14T04:28:17;18.60;;;14.00;;
41466;SDS011;27205;53.690;19.948;2023-06-14T04:33:21;11.00;;;9.90;;
41466;SDS011;27205;53.690;19.948;2023-06-14T04:38:28;6.20;;;5.20;;
41466;SDS011;27205;53.690;19.948;2023-06-14T04:43:31;4.50;;;4.00;;
41466;SDS011;27205;53.690;19.948;2023-06-14T04:48:41;5.50;;;4.50;;
41466;SDS011;27205;53.690;19.948;2023-06-14T04:53:45;4.30;;;3.90;;
41466;SDS011;27205;53.690;19.948;2023-06-14T04:58:49;7.90;;;4.40;;
41466;SDS011;27205;53.690;19.948;2023-06-14T05:03:53;7.20;;;4.80;;
41466;SDS011;27205;53.690;19.948;2023-06-14T05:08:56;6.80;;;4.80;;
41466;SDS011;27205;53.690;19.948;2023-06-14T05:14:00;5.80;;;4.20;;
41466;SDS011;27205;53.690;19.948;2023-06-14T05:24:08;4.00;;;3.60;;
41466;SDS011;27205;53.690;19.948;2023-06-14T05:29:12;4.40;;;3.70;;
41466;SDS011;27205;53.690;19.948;2023-06-14T05:34:16;5.10;;;3.40;;
41466;SDS011;27205;53.690;19.948;2023-06-14T05:39:19;5.10;;;3.90;;
41466;SDS011;27205;53.690;19.948;2023-06-14T05:44:23;6.10;;;3.80;;
41466;SDS011;27205;53.690;19.948;2023-06-14T05:49:26;6.80;;;4.40;;
41466;SDS011;27205;53.690;19.948;2023-06-14T05:54:30;5.40;;;3.40;;
41466;SDS011;27205;53.690;19.948;2023-06-14T05:59:34;11.50;;;4.60;;
41466;SDS011;27205;53.690;19.948;2023-06-14T06:04:37;5.90;;;3.60;;
41466;SDS011;27205;53.690;19.948;2023-06-14T06:09:41;8.80;;;3.70;;
41466;SDS011;27205;53.690;19.948;2023-06-14T06:19:48;9.00;;;4.30;;
41466;SDS011;27205;53.690;19.948;2023-06-14T06:29:55;3.50;;;3.20;;
41466;SDS011;27205;53.690;19.948;2023-06-14T06:34:59;4.50;;;3.20;;
41466;SDS011;27205;53.690;19.948;2023-06-14T06:40:03;5.60;;;3.50;;
41466;SDS011;27205;53.690;19.948;2023-06-14T06:45:09;8.90;;;3.60;;
41466;SDS011;27205;53.690;19.948;2023-06-14T06:50:13;10.00;;;3.80;;
41466;SDS011;27205;53.690;19.948;2023-06-14T06:55:16;8.40;;;4.20;;
41466;SDS011;27205;53.690;19.948;2023-06-14T07:00:21;4.00;;;3.20;;
41466;SDS011;27205;53.690;19.948;2023-06-14T07:05:26;10.10;;;4.50;;
41466;SDS011;27205;53.690;19.948;2023-06-14T07:10:30;6.10;;;3.80;;
41466;SDS011;27205;53.690;19.948;2023-06-14T07:15:34;7.60;;;4.00;;
41466;SDS011;27205;53.690;19.948;2023-06-14T07:20:38;9.80;;;4.60;;
41466;SDS011;27205;53.690;19.948;2023-06-14T07:25:42;8.50;;;4.20;;
41466;SDS011;27205;53.690;19.948;2023-06-14T07:35:49;4.50;;;3.30;;
41466;SDS011;27205;53.690;19.948;2023-06-14T07:40:53;5.00;;;3.20;;
41466;SDS011;27205;53.690;19.948;2023-06-14T07:45:56;6.50;;;3.60;;
41466;SDS011;27205;53.690;19.948;2023-06-14T07:51:10;7.90;;;3.60;;
41466;SDS011;27205;53.690;19.948;2023-06-14T07:56:14;10.10;;;4.20;;
41466;SDS011;27205;53.690;19.948;2023-06-14T08:01:17;7.50;;;3.20;;
41466;SDS011;27205;53.690;19.948;2023-06-14T08:06:23;5.30;;;3.50;;
41466;SDS011;27205;53.690;19.948;2023-06-14T08:11:26;7.00;;;3.60;;
41466;SDS011;27205;53.690;19.948;2023-06-14T08:16:30;7.00;;;3.70;;
41466;SDS011;27205;53.690;19.948;2023-06-14T08:21:34;4.00;;;3.50;;
41466;SDS011;27205;53.690;19.948;2023-06-14T08:26:39;8.50;;;4.00;;
41466;SDS011;27205;53.690;19.948;2023-06-14T08:31:43;10.00;;;3.70;;
41466;SDS011;27205;53.690;19.948;2023-06-14T08:36:46;4.20;;;2.80;;
41466;SDS011;27205;53.690;19.948;2023-06-14T08:41:50;5.70;;;3.70;;
41466;SDS011;27205;53.690;19.948;2023-06-14T08:46:56;4.70;;;2.90;;
41466;SDS011;27205;53.690;19.948;2023-06-14T08:52:03;6.40;;;3.30;;
41466;SDS011;27205;53.690;19.948;2023-06-14T08:57:11;6.30;;;3.60;;
41466;SDS011;27205;53.690;19.948;2023-06-14T09:02:20;5.40;;;3.80;;
41466;SDS011;27205;53.690;19.948;2023-06-14T09:07:25;7.70;;;3.60;;
41466;SDS011;27205;53.690;19.948;2023-06-14T09:12:30;4.70;;;2.80;;
41466;SDS011;27205;53.690;19.948;2023-06-14T09:17:36;6.10;;;3.10;;
41466;SDS011;27205;53.690;19.948;2023-06-14T09:22:44;5.50;;;3.10;;
41466;SDS011;27205;53.690;19.948;2023-06-14T09:27:48;3.80;;;3.10;;
41466;SDS011;27205;53.690;19.948;2023-06-14T09:32:52;8.80;;;4.10;;
41466;SDS011;27205;53.690;19.948;2023-06-14T09:37:56;7.70;;;3.50;;
41466;SDS011;27205;53.690;19.948;2023-06-14T09:42:59;11.80;;;4.90;;
41466;SDS011;27205;53.690;19.948;2023-06-14T09:48:03;6.80;;;3.40;;
41466;SDS011;27205;53.690;19.948;2023-06-14T09:53:10;4.30;;;2.70;;
41466;SDS011;27205;53.690;19.948;2023-06-14T09:58:15;11.20;;;4.10;;
41466;SDS011;27205;53.690;19.948;2023-06-14T10:03:21;4.70;;;3.20;;
41466;SDS011;27205;53.690;19.948;2023-06-14T10:08:38;6.20;;;2.80;;
41466;SDS011;27205;53.690;19.948;2023-06-14T10:13:43;7.70;;;3.00;;
41466;SDS011;27205;53.690;19.948;2023-06-14T10:18:59;6.90;;;3.10;;
41466;SDS011;27205;53.690;19.948;2023-06-14T10:24:12;4.50;;;2.70;;
41466;SDS011;27205;53.690;19.948;2023-06-14T10:29:23;5.80;;;2.60;;
41466;SDS011;27205;53.690;19.948;2023-06-14T10:34:27;3.40;;;2.50;;
41466;SDS011;27205;53.690;19.948;2023-06-14T10:39:37;7.90;;;3.30;;
41466;SDS011;27205;53.690;19.948;2023-06-14T10:44:45;3.60;;;2.20;;
41466;SDS011;27205;53.690;19.948;2023-06-14T10:50:11;2.10;;;1.90;;
41466;SDS011;27205;53.690;19.948;2023-06-14T10:55:18;6.30;;;3.10;;
41466;SDS011;27205;53.690;19.948;2023-06-14T11:00:24;5.40;;;2.40;;
41466;SDS011;27205;53.690;19.948;2023-06-14T11:05:30;6.60;;;3.00;;
41466;SDS011;27205;53.690;19.948;2023-06-14T11:10:43;5.90;;;2.90;;
41466;SDS011;27205;53.690;19.948;2023-06-14T11:15:51;8.00;;;2.70;;
41466;SDS011;27205;53.690;19.948;2023-06-14T11:20:57;5.90;;;2.90;;
41466;SDS011;27205;53.690;19.948;2023-06-14T11:26:00;6.40;;;3.00;;
41466;SDS011;27205;53.690;19.948;2023-06-14T11:31:04;5.90;;;2.90;;
41466;SDS011;27205;53.690;19.948;2023-06-14T11:36:08;6.00;;;2.90;;
41466;SDS011;27205;53.690;19.948;2023-06-14T11:41:11;4.70;;;3.10;;
41466;SDS011;27205;53.690;19.948;2023-06-14T11:46:15;2.80;;;2.40;;
41466;SDS011;27205;53.690;19.948;2023-06-14T11:51:20;5.80;;;2.60;;
41466;SDS011;27205;53.690;19.948;2023-06-14T11:56:23;6.20;;;3.30;;
41466;SDS011;27205;53.690;19.948;2023-06-14T12:01:29;4.50;;;3.40;;
41466;SDS011;27205;53.690;19.948;2023-06-14T12:06:35;5.30;;;3.80;;
41466;SDS011;27205;53.690;19.948;2023-06-14T12:11:43;5.80;;;4.20;;
41466;SDS011;27205;53.690;19.948;2023-06-14T12:16:46;6.60;;;3.70;;
41466;SDS011;27205;53.690;19.948;2023-06-14T12:21:50;3.00;;;2.70;;
41466;SDS011;27205;53.690;19.948;2023-06-14T12:26:57;3.30;;;2.90;;
41466;SDS011;27205;53.690;19.948;2023-06-14T12:32:06;3.50;;;3.10;;
41466;SDS011;27205;53.690;19.948;2023-06-14T12:37:10;3.70;;;2.90;;
41466;SDS011;27205;53.690;19.948;2023-06-14T12:42:14;6.00;;;2.90;;
41466;SDS011;27205;53.690;19.948;2023-06-14T12:47:17;4.40;;;2.30;;
41466;SDS011;27205;53.690;19.948;2023-06-14T12:52:21;3.50;;;2.90;;
41466;SDS011;27205;53.690;19.948;2023-06-14T12:57:25;12.40;;;4.10;;
41466;SDS011;27205;53.690;19.948;2023-06-14T13:02:28;3.50;;;3.10;;
41466;SDS011;27205;53.690;19.948;2023-06-14T13:07:32;3.10;;;2.80;;
41466;SDS011;27205;53.690;19.948;2023-06-14T13:12:35;8.20;;;3.20;;
41466;SDS011;27205;53.690;19.948;2023-06-14T13:17:39;3.00;;;2.70;;
41466;SDS011;27205;53.690;19.948;2023-06-14T13:22:43;4.50;;;3.40;;
41466;SDS011;27205;53.690;19.948;2023-06-14T13:32:50;2.80;;;2.50;;
41466;SDS011;27205;53.690;19.948;2023-06-14T13:37:55;2.40;;;2.20;;
41466;SDS011;27205;53.690;19.948;2023-06-14T13:48:02;2.60;;;2.40;;
41466;SDS011;27205;53.690;19.948;2023-06-14T13:53:06;2.40;;;1.70;;
41466;SDS011;27205;53.690;19.948;2023-06-14T13:58:10;2.00;;;1.80;;
41466;SDS011;27205;53.690;19.948;2023-06-14T14:03:14;1.90;;;1.80;;
41466;SDS011;27205;53.690;19.948;2023-06-14T14:08:18;1.80;;;1.70;;
41466;SDS011;27205;53.690;19.948;2023-06-14T14:13:21;2.30;;;2.10;;
41466;SDS011;27205;53.690;19.948;2023-06-14T14:18:25;1.90;;;1.80;;
41466;SDS011;27205;53.690;19.948;2023-06-14T14:23:33;4.70;;;2.60;;
41466;SDS011;27205;53.690;19.948;2023-06-14T14:28:37;3.40;;;2.10;;
41466;SDS011;27205;53.690;19.948;2023-06-14T14:33:41;2.60;;;2.40;;
41466;SDS011;27205;53.690;19.948;2023-06-14T14:38:45;3.50;;;3.20;;
41466;SDS011;27205;53.690;19.948;2023-06-14T14:43:50;3.20;;;2.90;;
41466;SDS011;27205;53.690;19.948;2023-06-14T14:48:54;3.00;;;2.50;;
41466;SDS011;27205;53.690;19.948;2023-06-14T14:53:58;3.00;;;2.40;;
41466;SDS011;27205;53.690;19.948;2023-06-14T14:59:01;2.70;;;2.40;;
41466;SDS011;27205;53.690;19.948;2023-06-14T15:04:05;2.10;;;1.90;;
41466;SDS011;27205;53.690;19.948;2023-06-14T15:09:09;4.40;;;2.60;;
41466;SDS011;27205;53.690;19.948;2023-06-14T15:19:18;4.70;;;2.10;;
41466;SDS011;27205;53.690;19.948;2023-06-14T15:24:21;3.60;;;2.50;;
41466;SDS011;27205;53.690;19.948;2023-06-14T15:29:43;2.90;;;2.50;;
41466;SDS011;27205;53.690;19.948;2023-06-14T15:34:50;2.30;;;2.00;;
41466;SDS011;27205;53.690;19.948;2023-06-14T15:39:54;2.70;;;2.50;;
41466;SDS011;27205;53.690;19.948;2023-06-14T15:44:57;21.80;;;19.30;;
41466;SDS011;27205;53.690;19.948;2023-06-14T15:50:01;16.40;;;14.70;;
41466;SDS011;27205;53.690;19.948;2023-06-14T15:55:08;10.00;;;9.00;;
41466;SDS011;27205;53.690;19.948;2023-06-14T16:00:12;5.50;;;5.00;;
41466;SDS011;27205;53.690;19.948;2023-06-14T16:05:17;4.20;;;3.80;;
41466;SDS011;27205;53.690;19.948;2023-06-14T16:10:21;5.30;;;3.60;;
41466;SDS011;27205;53.690;19.948;2023-06-14T16:15:25;4.20;;;3.20;;
41466;SDS011;27205;53.690;19.948;2023-06-14T16:20:29;3.50;;;2.90;;
41466;SDS011;27205;53.690;19.948;2023-06-14T16:25:32;3.90;;;2.80;;
41466;SDS011;27205;53.690;19.948;2023-06-14T16:30:36;2.90;;;2.60;;
41466;SDS011;27205;53.690;19.948;2023-06-14T16:35:40;2.60;;;2.40;;
41466;SDS011;27205;53.690;19.948;2023-06-14T16:40:44;2.90;;;2.50;;
41466;SDS011;27205;53.690;19.948;2023-06-14T16:45:47;2.40;;;2.30;;
41466;SDS011;27205;53.690;19.948;2023-06-14T16:50:51;3.80;;;2.50;;
41466;SDS011;27205;53.690;19.948;2023-06-14T16:55:55;4.60;;;2.80;;
41466;SDS011;27205;53.690;19.948;2023-06-14T17:00:58;4.30;;;3.40;;
41466;SDS011;27205;53.690;19.948;2023-06-14T17:06:02;2.60;;;2.40;;
41466;SDS011;27205;53.690;19.948;2023-06-14T17:11:06;2.50;;;2.30;;
41466;SDS011;27205;53.690;19.948;2023-06-14T17:16:10;3.40;;;3.10;;
41466;SDS011;27205;53.690;19.948;2023-06-14T17:21:15;2.60;;;2.40;;
41466;SDS011;27205;53.690;19.948;2023-06-14T17:26:19;2.90;;;2.70;;
41466;SDS011;27205;53.690;19.948;2023-06-14T17:31:22;4.50;;;3.60;;
41466;SDS011;27205;53.690;19.948;2023-06-14T17:36:26;3.90;;;3.50;;
41466;SDS011;27205;53.690;19.948;2023-06-14T17:41:29;3.70;;;3.40;;
41466;SDS011;27205;53.690;19.948;2023-06-14T17:46:35;3.10;;;2.90;;
41466;SDS011;27205;53.690;19.948;2023-06-14T17:51:39;4.60;;;3.30;;
41466;SDS011;27205;53.690;19.948;2023-06-14T17:56:42;3.10;;;2.90;;
41466;SDS011;27205;53.690;19.948;2023-06-14T18:01:46;4.00;;;3.70;;
41466;SDS011;27205;53.690;19.948;2023-06-14T18:06:50;2.90;;;2.70;;
41466;SDS011;27205;53.690;19.948;2023-06-14T18:11:54;3.10;;;2.80;;
41466;SDS011;27205;53.690;19.948;2023-06-14T18:16:58;4.60;;;4.10;;
41466;SDS011;27205;53.690;19.948;2023-06-14T18:22:02;4.00;;;3.70;;
41466;SDS011;27205;53.690;19.948;2023-06-14T18:27:07;4.90;;;4.30;;
41466;SDS011;27205;53.690;19.948;2023-06-14T18:32:14;4.20;;;3.80;;
41466;SDS011;27205;53.690;19.948;2023-06-14T18:37:18;4.10;;;3.80;;
41466;SDS011;27205;53.690;19.948;2023-06-14T18:42:22;4.70;;;4.10;;
41466;SDS011;27205;53.690;19.948;2023-06-14T18:47:26;3.80;;;2.90;;
41466;SDS011;27205;53.690;19.948;2023-06-14T18:52:31;4.10;;;3.60;;
41466;SDS011;27205;53.690;19.948;2023-06-14T19:07:44;4.10;;;3.80;;
41466;SDS011;27205;53.690;19.948;2023-06-14T19:12:48;5.90;;;3.50;;
41466;SDS011;27205;53.690;19.948;2023-06-14T19:17:54;4.10;;;3.80;;
41466;SDS011;27205;53.690;19.948;2023-06-14T19:23:00;4.80;;;4.50;;
41466;SDS011;27205;53.690;19.948;2023-06-14T19:28:06;4.10;;;3.40;;
41466;SDS011;27205;53.690;19.948;2023-06-14T19:33:11;5.10;;;4.60;;
41466;SDS011;27205;53.690;19.948;2023-06-14T19:38:16;4.20;;;3.80;;
41466;SDS011;27205;53.690;19.948;2023-06-14T19:43:22;3.70;;;3.40;;
41466;SDS011;27205;53.690;19.948;2023-06-14T19:48:26;4.20;;;3.80;;
41466;SDS011;27205;53.690;19.948;2023-06-14T19:53:31;4.10;;;3.70;;
41466;SDS011;27205;53.690;19.948;2023-06-14T19:58:35;3.20;;;3.00;;
41466;SDS011;27205;53.690;19.948;2023-06-14T20:03:40;4.40;;;4.00;;
41466;SDS011;27205;53.690;19.948;2023-06-14T20:08:47;3.80;;;3.50;;
41466;SDS011;27205;53.690;19.948;2023-06-14T20:13:53;4.70;;;4.20;;
41466;SDS011;27205;53.690;19.948;2023-06-14T20:18:57;3.90;;;3.60;;
41466;SDS011;27205;53.690;19.948;2023-06-14T20:24:05;4.30;;;3.60;;
41466;SDS011;27205;53.690;19.948;2023-06-14T20:29:09;3.50;;;3.30;;
41466;SDS011;27205;53.690;19.948;2023-06-14T20:34:14;4.00;;;3.60;;
41466;SDS011;27205;53.690;19.948;2023-06-14T20:39:18;5.00;;;3.90;;
41466;SDS011;27205;53.690;19.948;2023-06-14T20:44:23;3.60;;;3.30;;
41466;SDS011;27205;53.690;19.948;2023-06-14T20:49:32;3.40;;;3.20;;
41466;SDS011;27205;53.690;19.948;2023-06-14T20:54:37;3.50;;;3.20;;
41466;SDS011;27205;53.690;19.948;2023-06-14T20:59:45;3.80;;;3.40;;
41466;SDS011;27205;53.690;19.948;2023-06-14T21:04:50;3.40;;;3.10;;
41466;SDS011;27205;53.690;19.948;2023-06-14T21:09:53;3.30;;;3.10;;
41466;SDS011;27205;53.690;19.948;2023-06-14T21:14:57;3.50;;;3.20;;
41466;SDS011;27205;53.690;19.948;2023-06-14T21:20:01;4.40;;;3.80;;
41466;SDS011;27205;53.690;19.948;2023-06-14T21:25:05;3.70;;;3.40;;
41466;SDS011;27205;53.690;19.948;2023-06-14T21:30:09;4.00;;;3.70;;
41466;SDS011;27205;53.690;19.948;2023-06-14T21:35:18;3.60;;;3.30;;
41466;SDS011;27205;53.690;19.948;2023-06-14T21:40:23;3.50;;;3.20;;
41466;SDS011;27205;53.690;19.948;2023-06-14T21:45:27;3.90;;;3.60;;
41466;SDS011;27205;53.690;19.948;2023-06-14T21:50:31;3.70;;;3.40;;
41466;SDS011;27205;53.690;19.948;2023-06-14T21:55:34;2.90;;;2.70;;
41466;SDS011;27205;53.690;19.948;2023-06-14T22:00:38;3.80;;;3.40;;
41466;SDS011;27205;53.690;19.948;2023-06-14T22:05:42;3.60;;;3.30;;
41466;SDS011;27205;53.690;19.948;2023-06-14T22:10:46;3.20;;;3.00;;
41466;SDS011;27205;53.690;19.948;2023-06-14T22:15:52;3.10;;;2.70;;
41466;SDS011;27205;53.690;19.948;2023-06-14T22:20:59;3.30;;;3.00;;
41466;SDS011;27205;53.690;19.948;2023-06-14T22:26:03;4.50;;;3.40;;
41466;SDS011;27205;53.690;19.948;2023-06-14T22:31:10;3.50;;;3.20;;
41466;SDS011;27205;53.690;19.948;2023-06-14T22:36:17;4.20;;;3.70;;
41466;SDS011;27205;53.690;19.948;2023-06-14T22:41:21;3.40;;;3.10;;
41466;SDS011;27205;53.690;19.948;2023-06-14T22:46:29;3.20;;;3.00;;
41466;SDS011;27205;53.690;19.948;2023-06-14T22:51:32;4.00;;;3.20;;
41466;SDS011;27205;53.690;19.948;2023-06-14T22:56:36;4.10;;;3.70;;
41466;SDS011;27205;53.690;19.948;2023-06-14T23:01:40;4.00;;;3.70;;
41466;SDS011;27205;53.690;19.948;2023-06-14T23:06:44;3.40;;;3.10;;
41466;SDS011;27205;53.690;19.948;2023-06-14T23:11:50;3.00;;;2.70;;
41466;SDS011;27205;53.690;19.948;2023-06-14T23:16:53;3.50;;;3.20;;
41466;SDS011;27205;53.690;19.948;2023-06-14T23:21:58;3.80;;;3.40;;
41466;SDS011;27205;53.690;19.948;2023-06-14T23:27:05;4.00;;;3.10;;
41466;SDS011;27205;53.690;19.948;2023-06-14T23:32:09;2.90;;;2.70;;
41466;SDS011;27205;53.690;19.948;2023-06-14T23:37:13;3.80;;;3.50;;
41466;SDS011;27205;53.690;19.948;2023-06-14T23:42:16;3.30;;;3.10;;
41466;SDS011;27205;53.690;19.948;2023-06-14T23:47:20;5.10;;;3.50;;
41466;SDS011;27205;53.690;19.948;2023-06-14T23:52:23;4.80;;;3.60;;
41466;SDS011;27205;53.690;19.948;2023-06-14T23:57:30;5.20;;;3.70;;
